Time;durP1;ratioP1;P1;durP2;ratioP2;P2;SDS_P1;SDS_P2;PMS_P1;PMS_P2;Temp;Humidity;BMP_temperature;BMP_pressure;BME280_temperature;BME280_humidity;BME280_pressure;Samples;Min_cycle;Max_cycle;Signal;HPM_P1;HPM_P2
2023/12/04 00:00:15;;;;;;;2.28;2.13;;;-4.40;99.90;;;;;;4963668;28;20061;-77
2023/12/04 00:02:41;;;;;;;2.15;0.75;;;-4.40;99.90;;;;;;4964716;28;20357;-76
2023/12/04 00:05:07;;;;;;;3.40;1.60;;;-4.50;99.90;;;;;;4962115;28;20515;-76
2023/12/04 00:07:34;;;;;;;1.20;1.13;;;-4.50;99.90;;;;;;4955928;28;20042;-77
2023/12/04 00:10:00;;;;;;;2.70;1.95;;;-4.50;99.90;;;;;;4962551;28;20046;-76
2023/12/04 00:12:26;;;;;;;2.05;1.95;;;-4.50;99.90;;;;;;4966225;28;20035;-77
2023/12/04 00:14:52;;;;;;;3.10;2.33;;;-4.60;99.90;;;;;;4965431;28;20477;-76
2023/12/04 00:17:18;;;;;;;1.27;1.10;;;-4.60;99.90;;;;;;4965171;28;20038;-76
2023/12/04 00:19:44;;;;;;;2.00;1.85;;;-4.50;99.90;;;;;;4965438;28;20042;-77
2023/12/04 00:22:11;;;;;;;0.68;0.60;;;-4.50;99.90;;;;;;4967636;28;20469;-76
2023/12/04 00:24:37;;;;;;;1.27;1.08;;;-4.60;99.90;;;;;;4967863;28;20384;-77
2023/12/04 00:27:03;;;;;;;1.13;1.08;;;-4.60;99.90;;;;;;4961211;28;20055;-76
2023/12/04 00:29:30;;;;;;;2.05;1.67;;;-4.70;99.90;;;;;;4964798;28;20050;-77
2023/12/04 00:31:56;;;;;;;0.65;0.65;;;-4.70;99.90;;;;;;4948977;28;20633;-77
2023/12/04 00:34:23;;;;;;;1.67;0.45;;;-4.70;99.90;;;;;;4968812;28;20039;-76
2023/12/04 00:36:49;;;;;;;3.05;2.80;;;-4.80;99.90;;;;;;4962831;28;20032;-77
2023/12/04 00:39:15;;;;;;;0.20;0.20;;;-4.80;99.90;;;;;;4959679;28;20043;-76
2023/12/04 00:41:42;;;;;;;0.30;0.30;;;-4.80;99.90;;;;;;4965325;28;20042;-76
2023/12/04 00:44:09;;;;;;;2.10;2.00;;;-4.80;99.90;;;;;;4969086;28;20035;-76
2023/12/04 00:46:35;;;;;;;3.10;1.13;;;-4.80;99.90;;;;;;4966334;28;20046;-77
2023/12/04 00:49:01;;;;;;;0.85;0.85;;;-4.80;99.90;;;;;;4963433;28;20039;-76
2023/12/04 00:51:27;;;;;;;1.17;1.08;;;-4.90;99.90;;;;;;4966116;28;20039;-76
2023/12/04 00:53:54;;;;;;;0.52;0.52;;;-4.90;99.90;;;;;;4967537;28;20471;-76
2023/12/04 00:56:20;;;;;;;1.70;1.60;;;-4.90;99.90;;;;;;4968233;28;20031;-76
2023/12/04 00:58:46;;;;;;;0.52;0.52;;;-5.00;99.90;;;;;;4962428;28;20043;-76
2023/12/04 01:01:13;;;;;;;1.35;0.80;;;-5.00;99.90;;;;;;4964445;28;20471;-76
2023/12/04 01:03:39;;;;;;;1.40;0.65;;;-5.10;99.90;;;;;;4965183;28;20030;-75
2023/12/04 01:06:06;;;;;;;0.50;0.50;;;-5.10;99.90;;;;;;4968407;28;20039;-76
2023/12/04 01:08:32;;;;;;;1.25;1.20;;;-5.10;99.90;;;;;;4964838;28;20050;-76
2023/12/04 01:10:58;;;;;;;1.98;1.55;;;-5.20;99.90;;;;;;4962696;28;20042;-76
2023/12/04 01:13:25;;;;;;;2.92;2.13;;;-5.20;99.90;;;;;;4962470;28;20043;-76
2023/12/04 01:15:51;;;;;;;0.65;0.65;;;-5.20;99.90;;;;;;4966044;28;20397;-76
2023/12/04 01:18:18;;;;;;;0.47;0.47;;;-5.30;99.90;;;;;;4967218;28;20031;-74
2023/12/04 01:20:44;;;;;;;1.30;1.20;;;-5.40;99.90;;;;;;4953556;28;20043;-77
2023/12/04 01:23:10;;;;;;;0.75;0.75;;;-5.30;99.90;;;;;;4949657;28;20043;-75
2023/12/04 01:25:36;;;;;;;4.70;0.93;;;-5.30;99.90;;;;;;4967562;28;20038;-77
2023/12/04 01:28:02;;;;;;;3.00;2.83;;;-5.40;99.90;;;;;;4965579;28;20031;-77
2023/12/04 01:30:29;;;;;;;0.22;0.17;;;-5.40;99.90;;;;;;4964156;28;20038;-76
2023/12/04 01:32:55;;;;;;;1.67;1.52;;;-5.40;99.90;;;;;;4959689;28;20042;-76
2023/12/04 01:35:21;;;;;;;0.70;0.70;;;-5.40;99.90;;;;;;4967168;28;20038;-76
2023/12/04 01:37:47;;;;;;;1.13;0.70;;;-5.40;99.90;;;;;;4966044;28;20469;-76
2023/12/04 01:40:13;;;;;;;1.23;0.98;;;-5.40;99.90;;;;;;4967373;28;20043;-76
2023/12/04 01:42:42;;;;;;;1.00;1.00;;;-5.40;99.90;;;;;;4960103;28;20034;-77
2023/12/04 01:45:08;;;;;;;3.75;2.40;;;-5.50;99.90;;;;;;4962012;28;20143;-76
2023/12/04 01:47:35;;;;;;;3.47;3.17;;;-5.40;99.90;;;;;;4967401;28;20042;-76
2023/12/04 01:50:01;;;;;;;1.48;1.38;;;-5.50;99.90;;;;;;4967410;28;20041;-76
2023/12/04 01:52:28;;;;;;;6.82;2.33;;;-5.40;99.90;;;;;;4961655;28;20062;-77
2023/12/04 01:54:54;;;;;;;0.88;0.88;;;-5.40;99.90;;;;;;4961962;28;20038;-77
2023/12/04 01:57:20;;;;;;;1.02;1.02;;;-5.40;99.90;;;;;;4967546;28;20031;-76
2023/12/04 01:59:47;;;;;;;1.92;1.83;;;-5.50;99.90;;;;;;4962908;28;20043;-77
2023/12/04 02:02:13;;;;;;;10.38;3.97;;;-5.50;99.90;;;;;;4965904;28;20492;-77
2023/12/04 02:04:39;;;;;;;1.13;1.02;;;-5.50;99.90;;;;;;4959569;28;20050;-77
2023/12/04 02:07:06;;;;;;;2.17;1.17;;;-5.40;99.90;;;;;;4965153;28;20491;-76
2023/12/04 02:09:32;;;;;;;2.28;1.83;;;-5.50;99.90;;;;;;4965659;28;20038;-76
2023/12/04 02:11:59;;;;;;;6.82;1.98;;;-5.40;99.90;;;;;;4966974;28;20313;-76
2023/12/04 02:14:26;;;;;;;6.78;2.47;;;-5.40;99.90;;;;;;4959543;28;20066;-76
2023/12/04 02:16:54;;;;;;;1.77;0.80;;;-5.50;99.90;;;;;;4960606;28;20031;-76
2023/12/04 02:19:21;;;;;;;3.20;2.92;;;-5.50;99.90;;;;;;4963931;28;20038;-76
2023/12/04 02:21:47;;;;;;;1.75;1.65;;;-5.50;99.90;;;;;;4967716;28;20035;-76
2023/12/04 02:24:13;;;;;;;1.48;1.20;;;-5.50;99.90;;;;;;4963098;28;20349;-76
2023/12/04 02:26:47;;;;;;;1.08;0.90;;;-5.50;99.90;;;;;;4963031;28;20058;-77
2023/12/04 02:29:18;;;;;;;2.10;1.02;;;-5.50;99.90;;;;;;4966735;28;20050;-76
2023/12/04 02:31:46;;;;;;;0.82;0.77;;;-5.60;99.90;;;;;;4965677;28;20062;-76
2023/12/04 02:34:15;;;;;;;1.50;1.45;;;-5.60;99.90;;;;;;4963995;28;20034;-76
2023/12/04 02:36:43;;;;;;;8.77;1.65;;;-5.60;99.90;;;;;;4957631;28;20392;-77
2023/12/04 02:39:10;;;;;;;5.18;1.60;;;-5.60;99.90;;;;;;4965856;28;20047;-76
2023/12/04 02:41:36;;;;;;;0.52;0.52;;;-5.60;99.90;;;;;;4963326;28;20488;-76
2023/12/04 02:44:02;;;;;;;0.85;0.85;;;-5.60;99.90;;;;;;4953017;28;20031;-77
2023/12/04 02:46:28;;;;;;;2.08;1.88;;;-5.70;99.90;;;;;;4957425;28;20243;-77
2023/12/04 02:48:54;;;;;;;0.15;0.15;;;-5.50;99.90;;;;;;4958667;28;20042;-77
2023/12/04 02:51:20;;;;;;;2.05;1.92;;;-5.50;99.90;;;;;;4967351;28;20026;-77
2023/12/04 02:53:47;;;;;;;1.55;1.45;;;-5.50;99.90;;;;;;4965178;28;20046;-77
2023/12/04 02:56:13;;;;;;;0.52;0.52;;;-5.50;99.90;;;;;;4946340;28;20030;-76
2023/12/04 02:58:39;;;;;;;0.28;0.28;;;-5.50;99.90;;;;;;4958508;28;20416;-76
2023/12/04 03:01:05;;;;;;;6.38;1.88;;;-5.50;99.90;;;;;;4966087;28;20045;-77
2023/12/04 03:03:32;;;;;;;1.48;1.38;;;-5.60;99.90;;;;;;4966667;28;20039;-76
2023/12/04 03:05:58;;;;;;;0.85;0.52;;;-5.50;99.90;;;;;;4962804;28;20035;-76
2023/12/04 03:08:24;;;;;;;0.63;0.63;;;-5.40;99.90;;;;;;4960162;28;20515;-76
2023/12/04 03:10:50;;;;;;;0.32;0.32;;;-5.40;99.90;;;;;;4962943;28;20388;-77
2023/12/04 03:13:16;;;;;;;1.23;1.15;;;-5.30;99.90;;;;;;4964859;28;20031;-76
2023/12/04 03:15:42;;;;;;;2.58;2.40;;;-5.30;99.90;;;;;;4965347;28;20050;-77
2023/12/04 03:18:08;;;;;;;1.55;1.45;;;-5.40;99.90;;;;;;4960133;28;20062;-77
2023/12/04 03:20:35;;;;;;;0.98;0.95;;;-5.40;99.90;;;;;;4958040;28;20038;-76
2023/12/04 03:23:01;;;;;;;1.38;1.27;;;-5.40;99.90;;;;;;4964273;28;20132;-77
2023/12/04 03:25:27;;;;;;;1.80;1.20;;;-5.40;99.90;;;;;;4965194;28;20513;-76
2023/12/04 03:27:53;;;;;;;1.25;1.15;;;-5.30;99.90;;;;;;4964062;28;20457;-76
2023/12/04 03:30:20;;;;;;;3.30;0.85;;;-5.40;99.90;;;;;;4962194;28;20031;-75
2023/12/04 03:32:46;;;;;;;0.20;0.20;;;-5.40;99.90;;;;;;4963852;28;20041;-77
2023/12/04 03:35:12;;;;;;;0.52;0.52;;;-5.30;99.90;;;;;;4964303;28;20046;-76
2023/12/04 03:37:38;;;;;;;0.43;0.43;;;-5.30;99.90;;;;;;4965686;28;20037;-76
2023/12/04 03:40:05;;;;;;;1.08;0.98;;;-5.20;99.90;;;;;;4958790;28;20023;-77
2023/12/04 03:42:31;;;;;;;1.75;1.45;;;-5.20;99.90;;;;;;4966790;28;20370;-77
2023/12/04 03:44:57;;;;;;;2.35;1.42;;;-5.10;99.90;;;;;;4961423;28;20039;-77
2023/12/04 03:47:25;;;;;;;5.82;1.05;;;-5.10;99.90;;;;;;4967369;28;20050;-76
2023/12/04 03:49:51;;;;;;;8.02;2.08;;;-5.10;99.90;;;;;;4964882;28;20031;-77
2023/12/04 03:52:17;;;;;;;0.45;0.45;;;-5.10;99.90;;;;;;4962453;28;20046;-76
2023/12/04 03:54:43;;;;;;;0.85;0.85;;;-5.10;99.90;;;;;;4966051;28;20042;-77
2023/12/04 03:57:10;;;;;;;1.90;1.75;;;-5.10;99.90;;;;;;4968543;28;20045;-76
2023/12/04 03:59:36;;;;;;;0.90;0.43;;;-5.10;99.90;;;;;;4967403;28;20041;-76
2023/12/04 04:02:03;;;;;;;3.13;1.60;;;-5.20;99.90;;;;;;4965624;28;20050;-76
2023/12/04 04:04:29;;;;;;;0.03;0.03;;;-5.30;99.90;;;;;;4950603;28;20051;-76
2023/12/04 04:06:55;;;;;;;2.15;2.03;;;-5.30;99.90;;;;;;4967456;28;20469;-77
2023/12/04 04:09:22;;;;;;;1.33;0.80;;;-5.40;99.90;;;;;;4968784;28;20043;-76
2023/12/04 04:11:48;;;;;;;1.65;1.55;;;-5.30;99.90;;;;;;4963502;28;20104;-77
2023/12/04 04:14:14;;;;;;;0.85;0.85;;;-5.20;99.90;;;;;;4963986;28;20480;-77
2023/12/04 04:16:41;;;;;;;6.40;2.55;;;-5.20;99.90;;;;;;4964804;28;20039;-76
2023/12/04 04:19:07;;;;;;;2.13;1.95;;;-5.20;99.90;;;;;;4968652;28;20039;-77
2023/12/04 04:21:34;;;;;;;6.65;1.85;;;-5.20;99.90;;;;;;4964408;28;20039;-76
2023/12/04 04:24:00;;;;;;;1.77;1.67;;;-5.20;99.90;;;;;;4962010;28;20039;-76
2023/12/04 04:26:26;;;;;;;1.60;1.08;;;-5.20;99.90;;;;;;4964119;28;20035;-76
2023/12/04 04:28:52;;;;;;;8.30;1.73;;;-5.10;99.90;;;;;;4949114;28;20050;-77
2023/12/04 04:31:19;;;;;;;1.77;1.00;;;-5.10;99.90;;;;;;4966321;28;20035;-77
2023/12/04 04:33:45;;;;;;;0.20;0.20;;;-5.20;99.90;;;;;;4966986;28;20496;-77
2023/12/04 04:36:11;;;;;;;0.95;0.95;;;-5.20;99.90;;;;;;4963625;28;20035;-77
2023/12/04 04:38:40;;;;;;;0.68;0.68;;;-5.20;99.90;;;;;;4964049;28;20491;-76
2023/12/04 04:41:06;;;;;;;1.10;1.10;;;-5.20;99.90;;;;;;4965755;28;20039;-77
2023/12/04 04:43:33;;;;;;;0.20;0.20;;;-5.20;99.90;;;;;;4965010;28;20391;-76
2023/12/04 04:45:59;;;;;;;0.43;0.43;;;-5.20;99.90;;;;;;4961859;28;20066;-76
2023/12/04 04:48:26;;;;;;;0.88;0.88;;;-5.20;99.90;;;;;;4966537;28;20031;-76
2023/12/04 04:50:52;;;;;;;0.20;0.20;;;-5.10;99.90;;;;;;4966529;28;20039;-77
2023/12/04 04:53:18;;;;;;;1.92;1.83;;;-5.10;99.90;;;;;;4967304;28;20472;-76
2023/12/04 04:55:44;;;;;;;6.78;1.98;;;-5.00;99.90;;;;;;4962177;28;20031;-76
2023/12/04 04:58:11;;;;;;;3.15;2.78;;;-5.00;99.90;;;;;;4961172;28;20043;-77
2023/12/04 05:00:37;;;;;;;0.60;0.60;;;-5.00;99.90;;;;;;4948814;28;20042;-76
2023/12/04 05:03:03;;;;;;;2.95;2.40;;;-5.10;99.90;;;;;;4966105;28;20042;-77
2023/12/04 05:05:29;;;;;;;7.53;0.65;;;-5.10;99.90;;;;;;4967077;28;20039;-76
2023/12/04 05:07:55;;;;;;;0.50;0.50;;;-5.10;99.90;;;;;;4942398;28;22097;-76
2023/12/04 05:10:22;;;;;;;2.58;2.38;;;-5.10;99.90;;;;;;4961944;28;20047;-77
2023/12/04 05:12:48;;;;;;;1.35;1.25;;;-5.20;99.90;;;;;;4966660;28;20031;-76
2023/12/04 05:15:14;;;;;;;1.00;1.00;;;-5.10;99.90;;;;;;4964935;28;20046;-76
2023/12/04 05:17:40;;;;;;;2.15;2.05;;;-5.10;99.90;;;;;;4960593;28;20027;-76
2023/12/04 05:20:07;;;;;;;0.40;0.40;;;-5.10;99.90;;;;;;4964747;28;20039;-75
2023/12/04 05:22:35;;;;;;;1.85;1.13;;;-5.00;99.90;;;;;;4967307;28;20030;-76
2023/12/04 05:25:01;;;;;;;0.32;0.32;;;-5.00;99.90;;;;;;4965622;28;20050;-76
2023/12/04 05:27:27;;;;;;;1.38;1.35;;;-5.00;99.90;;;;;;4967665;28;20039;-76
2023/12/04 05:29:54;;;;;;;0.22;0.22;;;-5.00;99.90;;;;;;4959944;28;20042;-76
2023/12/04 05:32:20;;;;;;;7.93;1.10;;;-5.00;99.90;;;;;;4966332;28;20038;-76
2023/12/04 05:34:46;;;;;;;0.40;0.40;;;-5.00;99.90;;;;;;4967005;28;20035;-76
2023/12/04 05:37:13;;;;;;;2.72;1.15;;;-5.00;99.90;;;;;;4964768;28;20045;-76
2023/12/04 05:39:39;;;;;;;1.77;1.65;;;-5.00;99.90;;;;;;4963770;28;20042;-76
2023/12/04 05:42:05;;;;;;;1.42;1.10;;;-5.00;99.90;;;;;;4964468;28;20039;-76
2023/12/04 05:44:31;;;;;;;2.05;1.95;;;-5.00;99.90;;;;;;4965383;28;20042;-74
2023/12/04 05:46:58;;;;;;;2.03;0.73;;;-5.00;99.90;;;;;;4966810;28;20046;-76
2023/12/04 05:49:24;;;;;;;2.95;2.10;;;-4.90;99.90;;;;;;4960658;28;20038;-76
2023/12/04 05:51:50;;;;;;;3.08;2.85;;;-4.90;99.90;;;;;;4942208;28;20043;-77
2023/12/04 05:54:16;;;;;;;3.47;2.78;;;-4.90;99.90;;;;;;4965065;28;20031;-76
2023/12/04 05:56:42;;;;;;;0.73;0.73;;;-4.90;99.90;;;;;;4968321;28;20036;-76
2023/12/04 05:59:09;;;;;;;1.88;1.33;;;-4.90;99.90;;;;;;4962178;28;20506;-76
2023/12/04 06:01:35;;;;;;;0.75;0.68;;;-4.90;99.90;;;;;;4960748;28;20035;-76
2023/12/04 06:04:01;;;;;;;2.58;2.38;;;-4.70;99.90;;;;;;4963774;28;20043;-75
2023/12/04 06:06:27;;;;;;;2.78;2.65;;;-4.70;99.90;;;;;;4967248;28;20050;-75
2023/12/04 06:08:53;;;;;;;5.25;2.10;;;-4.60;1.00;;;;;;4964770;28;20031;-76
2023/12/04 06:11:19;;;;;;;2.25;2.00;;;-4.60;1.00;;;;;;4958105;28;20034;-75
2023/12/04 06:13:46;;;;;;;4.72;2.95;;;-4.60;1.00;;;;;;4946812;28;20128;-75
2023/12/04 06:16:12;;;;;;;3.28;3.00;;;-4.60;1.00;;;;;;4963314;28;20041;-75
2023/12/04 06:18:38;;;;;;;2.50;1.88;;;-4.60;1.00;;;;;;4966974;28;20026;-75
2023/12/04 06:21:04;;;;;;;1.02;0.68;;;-4.60;1.00;;;;;;4961737;28;20038;-76
2023/12/04 06:23:31;;;;;;;0.17;0.17;;;-4.60;1.00;;;;;;4963607;28;20039;-75
2023/12/04 06:25:57;;;;;;;4.47;4.03;;;-4.60;99.90;;;;;;4962852;28;20037;-75
2023/12/04 06:28:24;;;;;;;11.15;2.22;;;-4.70;99.90;;;;;;4948716;28;20038;-75
2023/12/04 06:30:50;;;;;;;18.75;7.07;;;-4.60;99.90;;;;;;4964050;28;20042;-75
2023/12/04 06:33:18;;;;;;;3.20;2.90;;;-4.60;99.90;;;;;;4966275;28;20038;-75
2023/12/04 06:35:45;;;;;;;3.08;2.78;;;-4.60;99.90;;;;;;4961585;28;20047;-75
2023/12/04 06:38:15;;;;;;;5.15;2.60;;;-4.60;99.90;;;;;;4965286;28;20042;-75
2023/12/04 06:40:42;;;;;;;1.05;1.02;;;-4.60;99.90;;;;;;4965569;28;20049;-75
2023/12/04 06:43:08;;;;;;;14.02;3.25;;;-4.50;99.90;;;;;;4958694;28;20039;-75
2023/12/04 06:45:35;;;;;;;1.83;1.73;;;-4.50;99.90;;;;;;4964800;28;20416;-77
2023/12/04 06:48:01;;;;;;;2.75;2.55;;;-4.50;99.90;;;;;;4961098;28;20031;-78
2023/12/04 06:50:27;;;;;;;1.27;1.27;;;-4.40;1.00;;;;;;4966846;28;20034;-78
2023/12/04 06:52:54;;;;;;;4.57;2.63;;;-4.40;99.90;;;;;;4961772;28;20031;-79
2023/12/04 06:55:20;;;;;;;2.80;2.55;;;-4.40;99.90;;;;;;4958793;28;20035;-78
2023/12/04 06:57:46;;;;;;;6.18;2.42;;;-4.40;99.90;;;;;;4963066;28;20035;-78
2023/12/04 07:00:14;;;;;;;6.13;4.57;;;-4.40;99.90;;;;;;4966505;28;20039;-75
2023/12/04 07:02:40;;;;;;;3.42;2.45;;;-4.40;99.90;;;;;;4964281;28;20488;-78
2023/12/04 07:05:07;;;;;;;4.43;3.30;;;-4.40;99.90;;;;;;4962643;28;20035;-78
2023/12/04 07:07:33;;;;;;;3.17;1.60;;;-4.30;1.00;;;;;;4963432;28;20031;-78
2023/12/04 07:09:59;;;;;;;5.82;1.88;;;-4.30;1.00;;;;;;4966087;28;20479;-76
2023/12/04 07:12:25;;;;;;;4.03;2.45;;;-4.30;1.00;;;;;;4962871;28;20027;-79
2023/12/04 07:14:51;;;;;;;0.60;0.60;;;-4.30;1.00;;;;;;4962091;28;20058;-79
2023/12/04 07:17:18;;;;;;;1.35;1.13;;;-4.20;1.00;;;;;;4955567;28;20035;-78
2023/12/04 07:19:44;;;;;;;1.13;1.13;;;-4.20;1.00;;;;;;4967229;28;20050;-78
2023/12/04 07:22:10;;;;;;;2.13;2.03;;;-4.10;1.00;;;;;;4964710;28;20059;-78
2023/12/04 07:24:36;;;;;;;7.65;3.15;;;-4.10;1.00;;;;;;4968417;28;20031;-78
2023/12/04 07:27:02;;;;;;;2.05;1.88;;;-4.00;1.00;;;;;;4964613;28;20038;-78
2023/12/04 07:29:29;;;;;;;3.00;1.33;;;-4.00;1.00;;;;;;4966450;28;20093;-77
2023/12/04 07:31:55;;;;;;;1.90;1.80;;;-3.90;1.00;;;;;;4968171;28;20035;-78
2023/12/04 07:34:21;;;;;;;1.80;1.70;;;-3.90;1.00;;;;;;4951703;28;20050;-77
2023/12/04 07:36:48;;;;;;;1.27;0.95;;;-3.90;1.00;;;;;;4963972;28;20491;-77
2023/12/04 07:39:15;;;;;;;0.28;0.28;;;-3.80;1.00;;;;;;4963277;28;20347;-77
2023/12/04 07:41:41;;;;;;;2.08;1.08;;;-3.80;99.90;;;;;;4969617;28;20460;-76
2023/12/04 07:44:08;;;;;;;1.08;1.05;;;-3.70;99.90;;;;;;4970037;28;20038;-77
2023/12/04 07:46:34;;;;;;;3.25;1.98;;;-3.60;99.90;;;;;;4964442;28;20477;-77
2023/12/04 07:49:00;;;;;;;1.75;1.45;;;-3.60;99.90;;;;;;4961123;28;20039;-77
2023/12/04 07:51:26;;;;;;;5.55;1.27;;;-3.60;99.90;;;;;;4968451;28;20038;-77
2023/12/04 07:53:53;;;;;;;4.88;1.38;;;-3.60;99.90;;;;;;4970369;28;20038;-77
2023/12/04 07:56:20;;;;;;;2.78;2.58;;;-3.50;99.90;;;;;;4972479;28;20031;-75
2023/12/04 07:58:46;;;;;;;1.48;1.35;;;-3.50;99.90;;;;;;4952790;28;20042;-77
2023/12/04 08:01:14;;;;;;;2.95;1.65;;;-3.50;99.90;;;;;;4971630;28;20472;-77
2023/12/04 08:03:40;;;;;;;1.65;1.38;;;-3.40;99.90;;;;;;4972426;28;20488;-77
2023/12/04 08:06:07;;;;;;;1.80;1.20;;;-3.40;99.90;;;;;;4971388;28;20412;-77
2023/12/04 08:08:33;;;;;;;1.35;1.25;;;-3.40;99.90;;;;;;4969571;28;20042;-77
2023/12/04 08:10:59;;;;;;;0.68;0.68;;;-3.30;99.90;;;;;;4965627;28;20043;-78
2023/12/04 08:13:25;;;;;;;2.42;2.08;;;-3.30;99.90;;;;;;4972536;28;20046;-77
2023/12/04 08:15:51;;;;;;;5.00;3.38;;;-3.30;99.90;;;;;;4955384;28;20030;-77
2023/12/04 08:18:17;;;;;;;1.67;1.58;;;-3.20;99.90;;;;;;4969320;28;20039;-77
2023/12/04 08:20:44;;;;;;;3.05;2.15;;;-3.30;99.90;;;;;;4971795;28;20035;-77
2023/12/04 08:23:10;;;;;;;2.80;2.15;;;-3.20;99.90;;;;;;4955442;28;20062;-77
2023/12/04 08:25:38;;;;;;;0.30;0.30;;;-3.10;99.90;;;;;;4971971;28;20031;-77
2023/12/04 08:28:05;;;;;;;2.92;1.92;;;-3.10;99.90;;;;;;4972014;28;20026;-77
2023/12/04 08:30:32;;;;;;;5.78;3.00;;;-3.00;99.90;;;;;;4965849;28;20045;-75
2023/12/04 08:32:58;;;;;;;2.53;2.33;;;-2.90;99.90;;;;;;4965603;28;20404;-78
2023/12/04 08:35:24;;;;;;;3.25;1.73;;;-2.70;99.90;;;;;;4965825;28;20038;-77
2023/12/04 08:37:50;;;;;;;0.77;0.77;;;-2.50;99.90;;;;;;4967140;28;20031;-76
2023/12/04 08:40:17;;;;;;;1.60;1.50;;;-2.40;99.90;;;;;;4962698;28;20051;-76
2023/12/04 08:42:44;;;;;;;2.95;1.90;;;-2.20;99.90;;;;;;4944384;28;20046;-77
2023/12/04 08:45:11;;;;;;;2.22;2.03;;;-2.00;99.90;;;;;;4963779;28;20035;-78
2023/12/04 08:47:37;;;;;;;5.10;3.25;;;-1.80;99.90;;;;;;4969699;28;20388;-78
2023/12/04 08:50:03;;;;;;;4.63;1.90;;;-1.80;99.90;;;;;;4965962;28;20043;-78
2023/12/04 08:52:30;;;;;;;3.40;3.17;;;-1.70;99.90;;;;;;4965709;28;20047;-77
2023/12/04 08:54:57;;;;;;;4.85;2.97;;;-1.60;99.90;;;;;;4962306;28;20027;-78
2023/12/04 08:57:23;;;;;;;4.43;2.72;;;-1.50;99.80;;;;;;4968163;28;20027;-74
2023/12/04 08:59:49;;;;;;;4.28;3.88;;;-1.40;76.70;;;;;;4967910;28;20035;-77
2023/12/04 09:02:15;;;;;;;3.22;2.95;;;-1.30;58.40;;;;;;4961131;28;20772;-75
2023/12/04 09:04:41;;;;;;;3.95;2.97;;;-1.20;34.60;;;;;;4964062;28;20093;-78
2023/12/04 09:07:08;;;;;;;2.40;2.20;;;-1.10;17.80;;;;;;4964107;28;20038;-75
2023/12/04 09:09:34;;;;;;;1.75;1.65;;;-1.10;1.00;;;;;;4968063;28;20396;-75
2023/12/04 09:12:00;;;;;;;2.70;2.15;;;-1.10;1.00;;;;;;4963165;28;20031;-76
2023/12/04 09:14:27;;;;;;;1.48;1.38;;;-1.10;1.00;;;;;;4965482;28;20052;-75
2023/12/04 09:16:54;;;;;;;1.67;1.58;;;-1.00;1.00;;;;;;4964444;28;20452;-75
2023/12/04 09:19:20;;;;;;;6.57;3.10;;;-1.00;1.00;;;;;;4964414;28;20042;-76
2023/12/04 09:21:47;;;;;;;1.52;1.45;;;-1.00;1.00;;;;;;4966416;28;20042;-76
2023/12/04 09:24:13;;;;;;;2.80;2.20;;;-0.90;1.00;;;;;;4965014;28;20318;-76
2023/12/04 09:26:39;;;;;;;1.05;0.98;;;-1.00;1.00;;;;;;4962310;28;20069;-76
2023/12/04 09:29:06;;;;;;;1.55;1.45;;;-1.00;1.00;;;;;;4966002;28;20038;-76
2023/12/04 09:31:32;;;;;;;3.20;2.05;;;-1.00;1.00;;;;;;4964844;28;20046;-77
2023/12/04 09:33:58;;;;;;;1.05;1.05;;;-1.00;1.00;;;;;;4961901;28;20030;-78
2023/12/04 09:36:24;;;;;;;1.02;1.02;;;-1.00;1.00;;;;;;4959544;28;20065;-76
2023/12/04 09:38:50;;;;;;;4.38;3.05;;;-1.10;1.00;;;;;;4965188;28;20043;-77
2023/12/04 09:41:17;;;;;;;1.50;1.40;;;-1.10;1.00;;;;;;4965332;28;20035;-76
2023/12/04 09:43:44;;;;;;;3.88;1.42;;;-1.10;1.00;;;;;;4965256;28;20111;-76
2023/12/04 09:46:11;;;;;;;3.20;2.85;;;-1.10;1.00;;;;;;4963119;28;20062;-77
2023/12/04 09:48:40;;;;;;;2.22;2.03;;;-1.10;1.00;;;;;;4967278;28;20039;-77
2023/12/04 09:51:08;;;;;;;4.65;3.13;;;-1.10;12.90;;;;;;4970394;28;20034;-77
2023/12/04 09:53:35;;;;;;;1.58;1.35;;;-1.20;25.40;;;;;;4968963;28;20039;-77
2023/12/04 09:56:03;;;;;;;15.90;1.63;;;-1.20;36.60;;;;;;4969614;28;20038;-77
2023/12/04 09:58:32;;;;;;;3.20;1.45;;;-1.10;45.80;;;;;;4963681;28;20042;-77
2023/12/04 10:01:02;;;;;;;8.30;2.75;;;-1.10;52.60;;;;;;4964973;28;20039;-77
2023/12/04 10:03:29;;;;;;;1.27;1.17;;;-1.10;50.00;;;;;;4964625;28;20039;-77
2023/12/04 10:05:56;;;;;;;1.98;1.88;;;-1.10;37.90;;;;;;4966245;28;20110;-77
2023/12/04 10:08:22;;;;;;;4.80;2.63;;;-1.00;47.90;;;;;;4968080;28;20026;-77
2023/12/04 10:10:48;;;;;;;7.05;0.90;;;-1.00;54.60;;;;;;4970909;28;20035;-77
2023/12/04 10:13:15;;;;;;;3.53;1.67;;;-0.90;38.20;;;;;;4954184;28;20396;-77
2023/12/04 10:15:49;;;;;;;0.57;0.57;;;-0.80;23.70;;;;;;4968311;28;20050;-77
2023/12/04 10:18:26;;;;;;;3.22;2.92;;;-0.60;6.50;;;;;;4966571;28;20031;-77
2023/12/04 10:20:54;;;;;;;5.30;2.78;;;-0.50;1.00;;;;;;4968332;28;20042;-77
2023/12/04 10:23:21;;;;;;;2.58;2.42;;;-0.50;1.00;;;;;;4970171;28;20034;-77
2023/12/04 10:25:50;;;;;;;3.15;2.15;;;-0.40;1.00;;;;;;4969336;28;20031;-77
2023/12/04 10:28:17;;;;;;;4.18;1.75;;;-0.40;1.00;;;;;;4966364;28;20027;-77
2023/12/04 10:30:45;;;;;;;0.88;0.88;;;-0.60;1.00;;;;;;4963732;28;20039;-78
2023/12/04 10:33:13;;;;;;;1.45;1.35;;;-0.60;1.00;;;;;;4960384;28;20035;-77
2023/12/04 10:35:40;;;;;;;2.47;2.28;;;-0.80;1.00;;;;;;4949926;28;20036;-77
2023/12/04 10:38:07;;;;;;;1.77;1.67;;;-0.80;2.10;;;;;;4963120;28;20027;-78
2023/12/04 10:40:35;;;;;;;3.03;2.65;;;-0.90;17.10;;;;;;4965382;28;20038;-77
2023/12/04 10:43:14;;;;;;;10.13;3.83;;;-0.90;38.40;;;;;;4969546;28;20365;-77
2023/12/04 10:45:42;;;;;;;2.00;1.88;;;-0.80;51.00;;;;;;4968901;28;20127;-79
2023/12/04 10:48:09;;;;;;;1.98;1.88;;;-0.80;57.10;;;;;;4965133;28;20035;-78
2023/12/04 10:50:39;;;;;;;1.15;1.15;;;-0.80;51.60;;;;;;4960988;28;20032;-77
2023/12/04 10:53:09;;;;;;;3.13;2.90;;;-0.70;61.10;;;;;;4959508;28;20131;-77
2023/12/04 10:55:36;;;;;;;8.18;2.58;;;-0.80;64.30;;;;;;4962215;28;20034;-75
2023/12/04 10:58:06;;;;;;;2.20;2.05;;;-0.70;49.50;;;;;;4946383;28;20050;-76
2023/12/04 11:00:34;;;;;;;6.40;3.92;;;-0.70;26.50;;;;;;4964672;28;20046;-76
2023/12/04 11:03:12;;;;;;;2.28;2.05;;;-0.70;20.40;;;;;;4959053;28;20039;-75
2023/12/04 11:05:40;;;;;;;1.60;1.50;;;-0.70;25.10;;;;;;4963868;28;20038;-75
2023/12/04 11:08:11;;;;;;;0.98;0.98;;;-0.70;31.50;;;;;;4961954;28;20023;-76
2023/12/04 11:10:55;;;;;;;1.65;1.33;;;-0.70;29.80;;;;;;4963875;28;20035;-76
2023/12/04 11:13:31;;;;;;;3.10;2.65;;;-0.70;19.50;;;;;;4961680;28;20027;-75
2023/12/04 11:16:19;;;;;;;2.83;1.27;;;-0.70;40.20;;;;;;4960528;28;20050;-75
2023/12/04 11:18:53;;;;;;;2.22;2.13;;;-0.70;67.40;;;;;;4964829;28;20112;-75
2023/12/04 11:21:20;;;;;;;4.13;2.25;;;-0.70;92.70;;;;;;4958369;28;20404;-76
2023/12/04 11:23:48;;;;;;;1.88;1.77;;;-0.80;94.30;;;;;;4959346;28;20042;-76
2023/12/04 11:26:15;;;;;;;5.78;2.58;;;-0.70;99.90;;;;;;4962682;28;20043;-81
2023/12/04 11:28:43;;;;;;;9.43;3.83;;;-0.70;99.90;;;;;;4949301;28;20039;-81
2023/12/04 11:31:09;;;;;;;2.25;1.05;;;-0.70;99.90;;;;;;4962278;28;20374;-81
2023/12/04 11:33:38;;;;;;;2.88;2.67;;;-0.70;99.90;;;;;;4965798;28;20038;-77
2023/12/04 11:36:09;;;;;;;2.38;2.10;;;-0.70;99.90;;;;;;4961803;28;20039;-80
2023/12/04 11:38:36;;;;;;;2.17;2.08;;;-0.60;99.90;;;;;;4962830;28;20039;-82
2023/12/04 11:41:22;;;;;;;2.95;1.63;;;-0.60;99.90;;;;;;4962633;28;20057;-81
2023/12/04 11:43:49;;;;;;;3.75;1.85;;;-0.50;99.90;;;;;;4955417;28;20038;-81
2023/12/04 11:46:23;;;;;;;4.55;2.20;;;-0.60;99.90;;;;;;4960247;28;20055;-80
2023/12/04 11:48:50;;;;;;;3.55;3.20;;;-0.60;99.90;;;;;;4963731;28;20042;-81
2023/12/04 11:51:46;;;;;;;4.63;4.22;;;-0.60;99.90;;;;;;4961671;28;20042;-82
2023/12/04 11:54:18;;;;;;;2.70;1.25;;;-0.60;99.90;;;;;;4943310;28;20042;-80
2023/12/04 11:57:09;;;;;;;4.90;2.40;;;-0.60;99.90;;;;;;4958387;28;20039;-88
2023/12/04 11:59:39;;;;;;;6.68;3.45;;;-0.50;99.90;;;;;;4965556;28;20387;-81
2023/12/04 12:02:09;;;;;;;6.65;3.80;;;-0.60;99.90;;;;;;4964262;28;20050;-81
2023/12/04 12:04:37;;;;;;;3.30;2.08;;;-0.50;99.90;;;;;;4960075;28;20035;-82
2023/12/04 12:07:05;;;;;;;2.25;2.10;;;-0.40;99.90;;;;;;4960267;28;20046;-83
2023/12/04 12:09:33;;;;;;;2.40;2.20;;;-0.50;99.90;;;;;;4971070;28;20034;-82
2023/12/04 12:12:03;;;;;;;4.75;4.35;;;-0.50;99.90;;;;;;4970332;28;20043;-82
2023/12/04 12:14:30;;;;;;;6.50;3.77;;;-0.60;99.90;;;;;;4966968;28;20534;-81
2023/12/04 12:16:59;;;;;;;1.42;1.33;;;-0.60;99.90;;;;;;4963605;28;20035;-82
2023/12/04 12:19:25;;;;;;;1.17;1.10;;;-0.60;99.90;;;;;;4971803;28;20042;-81
2023/12/04 12:21:52;;;;;;;0.45;0.45;;;-0.60;99.90;;;;;;4975082;28;20039;-82
2023/12/04 12:24:18;;;;;;;6.03;2.28;;;-0.60;99.90;;;;;;4957746;28;20031;-82
2023/12/04 12:26:45;;;;;;;3.40;2.83;;;-0.60;99.90;;;;;;4979181;28;20035;-82
2023/12/04 12:29:11;;;;;;;8.32;3.20;;;-0.50;99.90;;;;;;4975751;28;20046;-82
2023/12/04 12:31:37;;;;;;;2.38;2.20;;;-0.40;99.90;;;;;;4965008;28;20050;-82
2023/12/04 12:34:04;;;;;;;1.27;0.73;;;-0.40;99.90;;;;;;4970039;28;20057;-82
2023/12/04 12:36:32;;;;;;;4.57;2.38;;;-0.30;99.90;;;;;;4962035;28;20112;-82
2023/12/04 12:39:03;;;;;;;0.30;0.30;;;-0.20;99.90;;;;;;4959796;28;20035;-82
2023/12/04 12:41:30;;;;;;;4.40;2.50;;;-0.20;99.90;;;;;;4933489;28;20073;-85
2023/12/04 12:43:56;;;;;;;1.45;1.30;;;-0.10;99.90;;;;;;4965385;28;20535;-82
2023/12/04 12:46:23;;;;;;;1.80;1.70;;;-0.10;99.90;;;;;;4964607;28;20055;-82